Time;durP1;ratioP1;P1;durP2;ratioP2;P2;SDS_P1;SDS_P2;PMS_P1;PMS_P2;Temp;Humidity;BMP_temperature;BMP_pressure;BME280_temperature;BME280_humidity;BME280_pressure;Samples;Min_cycle;Max_cycle;Signal;HPM_P1;HPM_P2
2022/03/13 00:02:19;;;;;;;24.38;17.73;;;6.60;91.10;;;;;;5043510;28;20029;-51
2022/03/13 00:04:49;;;;;;;28.33;19.17;;;6.60;91.00;;;;;;5035977;28;20410;-49
2022/03/13 00:07:21;;;;;;;24.00;18.65;;;6.70;91.20;;;;;;5035793;28;20100;-53
2022/03/13 00:09:51;;;;;;;23.05;18.58;;;6.70;91.50;;;;;;5042476;28;20037;-50
2022/03/13 00:12:29;;;;;;;23.92;17.95;;;6.70;91.30;;;;;;5040641;28;20135;-49
2022/03/13 00:14:57;;;;;;;30.00;20.38;;;6.70;91.60;;;;;;5053336;28;20116;-49
2022/03/13 00:17:30;;;;;;;25.58;18.40;;;6.70;91.80;;;;;;5037921;28;20496;-54
2022/03/13 00:20:00;;;;;;;26.10;18.30;;;6.70;91.90;;;;;;5034758;28;20073;-50
2022/03/13 00:22:27;;;;;;;24.02;17.85;;;6.70;91.90;;;;;;5043808;28;20033;-52
2022/03/13 00:24:53;;;;;;;29.08;18.40;;;6.70;91.50;;;;;;5053238;28;20057;-54
2022/03/13 00:27:19;;;;;;;25.60;18.95;;;6.70;91.60;;;;;;5045425;28;20060;-49
2022/03/13 00:29:44;;;;;;;22.77;18.37;;;6.70;91.60;;;;;;5041963;28;20072;-50
2022/03/13 00:32:10;;;;;;;23.70;18.43;;;6.60;91.50;;;;;;5043084;28;20043;-49
2022/03/13 00:34:36;;;;;;;22.57;17.90;;;6.60;91.80;;;;;;5052905;28;20041;-52
2022/03/13 00:37:03;;;;;;;25.90;18.50;;;6.60;91.70;;;;;;5049331;28;20505;-49
2022/03/13 00:39:28;;;;;;;25.20;18.65;;;6.60;91.80;;;;;;5053049;28;20397;-50
2022/03/13 00:41:54;;;;;;;26.10;19.60;;;6.50;91.80;;;;;;5048701;28;20029;-52
2022/03/13 00:44:19;;;;;;;24.40;17.87;;;6.50;91.90;;;;;;5035607;28;20410;-52
2022/03/13 00:46:45;;;;;;;26.97;17.67;;;6.50;92.60;;;;;;5038264;28;20532;-54
2022/03/13 00:49:11;;;;;;;24.85;17.77;;;6.50;92.90;;;;;;5052976;28;20112;-48
2022/03/13 00:51:37;;;;;;;29.55;19.27;;;6.50;92.80;;;;;;5049893;28;20040;-48
2022/03/13 00:54:05;;;;;;;25.65;19.85;;;6.50;93.20;;;;;;5052256;28;20040;-49
2022/03/13 00:56:31;;;;;;;27.35;19.13;;;6.40;93.40;;;;;;5046194;28;20045;-54
2022/03/13 00:58:57;;;;;;;;;;;6.50;93.80;;;;;;5033160;28;20128;-51
2022/03/13 01:01:23;;;;;;;26.15;18.58;;;6.50;94.30;;;;;;5038337;28;20024;-50
2022/03/13 01:03:51;;;;;;;27.23;20.08;;;6.50;94.20;;;;;;5033386;28;20029;-49
2022/03/13 01:06:18;;;;;;;26.00;19.35;;;6.50;94.60;;;;;;5032655;28;20048;-50
2022/03/13 01:08:46;;;;;;;29.48;19.25;;;6.50;94.70;;;;;;5037190;28;20037;-52
2022/03/13 01:11:18;;;;;;;25.52;19.70;;;6.50;94.80;;;;;;5032730;28;20033;-48
2022/03/13 01:13:44;;;;;;;26.90;18.67;;;6.50;94.20;;;;;;5049538;28;20051;-53
2022/03/13 01:16:20;;;;;;;24.83;19.15;;;6.50;94.20;;;;;;5035770;28;20120;-49
2022/03/13 01:18:53;;;;;;;24.40;18.55;;;6.50;94.10;;;;;;5037533;28;20455;-50
2022/03/13 01:21:19;;;;;;;26.98;19.30;;;6.50;94.30;;;;;;5032758;28;20041;-50
2022/03/13 01:24:05;;;;;;;24.95;18.65;;;6.50;94.40;;;;;;5048503;28;20037;-53
2022/03/13 01:26:34;;;;;;;27.65;18.67;;;6.50;94.40;;;;;;5050834;28;20037;-51
2022/03/13 01:29:01;;;;;;;29.15;20.08;;;6.40;94.50;;;;;;5036266;28;20045;-54
2022/03/13 01:31:28;;;;;;;24.25;19.15;;;6.40;94.40;;;;;;5052298;28;20091;-52
2022/03/13 01:33:54;;;;;;;31.85;19.67;;;6.40;95.00;;;;;;5038660;28;20043;-52
2022/03/13 01:36:20;;;;;;;24.33;18.98;;;6.40;95.10;;;;;;5043481;28;20124;-54
2022/03/13 01:38:46;;;;;;;25.27;18.67;;;6.50;95.80;;;;;;5036054;28;20513;-49
2022/03/13 01:41:11;;;;;;;27.30;20.93;;;6.50;95.90;;;;;;5032490;28;20040;-48
2022/03/13 01:43:37;;;;;;;22.40;18.17;;;6.50;96.10;;;;;;5046252;28;20045;-48
2022/03/13 01:46:04;;;;;;;27.08;19.05;;;6.50;96.30;;;;;;5048279;28;20128;-53
2022/03/13 01:48:38;;;;;;;26.35;19.67;;;6.50;95.90;;;;;;5043558;28;20040;-51
2022/03/13 01:51:05;;;;;;;25.98;19.17;;;6.50;96.20;;;;;;5030498;28;20447;-48
2022/03/13 01:53:32;;;;;;;24.70;19.25;;;6.50;96.00;;;;;;5043876;28;20043;-51
2022/03/13 01:55:58;;;;;;;28.27;18.58;;;6.60;96.40;;;;;;5051902;28;20044;-53
2022/03/13 01:58:24;;;;;;;24.05;18.30;;;6.50;96.30;;;;;;5041927;28;20049;-50
2022/03/13 02:00:50;;;;;;;26.95;19.13;;;6.50;96.10;;;;;;5033253;28;20095;-49
2022/03/13 02:03:16;;;;;;;23.95;19.33;;;6.50;96.30;;;;;;5040919;28;20045;-52
2022/03/13 02:05:48;;;;;;;30.38;19.90;;;6.50;96.20;;;;;;5051347;28;20045;-48
2022/03/13 02:08:22;;;;;;;23.73;18.50;;;6.50;96.40;;;;;;5045698;28;20060;-53
2022/03/13 02:10:48;;;;;;;26.85;19.13;;;6.50;96.30;;;;;;5033240;28;20529;-53
2022/03/13 02:13:17;;;;;;;34.03;19.25;;;6.40;96.70;;;;;;5032606;28;20537;-49
2022/03/13 02:15:42;;;;;;;27.45;19.25;;;6.50;96.60;;;;;;5031373;28;20041;-50
2022/03/13 02:18:08;;;;;;;24.80;18.17;;;6.40;96.70;;;;;;5038609;28;20041;-50
2022/03/13 02:20:44;;;;;;;26.27;18.67;;;6.40;96.70;;;;;;5033716;28;20291;-49
2022/03/13 02:23:24;;;;;;;25.58;19.85;;;6.40;96.90;;;;;;5041782;28;20040;-52
2022/03/13 02:25:51;;;;;;;24.10;18.50;;;6.40;96.90;;;;;;5041308;28;20041;-50
2022/03/13 02:28:25;;;;;;;23.88;17.88;;;6.30;96.80;;;;;;5038652;28;20108;-51
2022/03/13 02:30:53;;;;;;;25.73;19.27;;;6.30;96.70;;;;;;5047397;28;20319;-48
2022/03/13 02:33:21;;;;;;;26.08;20.23;;;6.20;96.40;;;;;;5040414;28;20108;-51
2022/03/13 02:35:54;;;;;;;29.75;20.02;;;6.20;97.00;;;;;;5050050;28;20191;-54
2022/03/13 02:38:20;;;;;;;27.63;19.23;;;6.20;97.20;;;;;;5044410;28;20504;-53
2022/03/13 02:40:46;;;;;;;23.27;18.90;;;6.10;97.00;;;;;;5035713;28;20120;-51
2022/03/13 02:43:11;;;;;;;40.03;18.52;;;6.10;97.30;;;;;;5043241;28;20065;-52
2022/03/13 02:45:38;;;;;;;24.87;18.30;;;6.10;97.20;;;;;;5030975;28;20034;-50
2022/03/13 02:48:07;;;;;;;23.58;18.60;;;6.10;97.60;;;;;;5033773;28;20033;-51
2022/03/13 02:50:34;;;;;;;23.27;17.92;;;6.00;97.50;;;;;;5040719;28;20059;-53
2022/03/13 02:53:00;;;;;;;23.90;18.40;;;6.00;97.60;;;;;;5046427;28;20025;-49
2022/03/13 02:55:25;;;;;;;26.00;18.67;;;6.00;97.60;;;;;;5030847;28;20098;-48
2022/03/13 02:57:52;;;;;;;28.38;19.58;;;6.00;97.40;;;;;;5030584;28;20428;-52
2022/03/13 03:00:20;;;;;;;25.23;18.25;;;5.90;97.40;;;;;;5047252;28;20029;-53
2022/03/13 03:02:46;;;;;;;27.25;18.95;;;5.90;97.50;;;;;;5046594;28;20124;-50
2022/03/13 03:05:11;;;;;;;23.10;17.30;;;5.80;97.60;;;;;;5049979;28;20120;-51
2022/03/13 03:07:38;;;;;;;24.17;18.70;;;5.80;97.60;;;;;;5050498;28;20406;-52
2022/03/13 03:10:05;;;;;;;29.92;20.02;;;5.80;97.60;;;;;;5034410;28;20303;-48
2022/03/13 03:12:34;;;;;;;23.25;18.33;;;5.70;97.60;;;;;;5061030;28;20034;-50
2022/03/13 03:15:00;;;;;;;28.13;18.83;;;5.70;97.70;;;;;;5032718;28;20041;-53
2022/03/13 03:17:26;;;;;;;28.08;19.40;;;5.70;97.70;;;;;;5030538;28;20429;-50
2022/03/13 03:19:52;;;;;;;25.15;18.42;;;5.60;97.60;;;;;;5031242;28;20124;-51
2022/03/13 03:22:17;;;;;;;22.90;18.57;;;5.50;97.70;;;;;;5045675;28;20358;-54
2022/03/13 03:24:43;;;;;;;20.27;16.87;;;5.50;97.90;;;;;;5042954;28;20044;-53
2022/03/13 03:27:09;;;;;;;30.27;20.52;;;5.40;98.00;;;;;;5043839;28;20069;-49
2022/03/13 03:29:35;;;;;;;26.43;19.87;;;5.40;98.00;;;;;;5034021;28;20488;-48
2022/03/13 03:32:02;;;;;;;25.77;19.13;;;5.40;98.10;;;;;;5039258;28;20490;-52
2022/03/13 03:34:28;;;;;;;26.40;19.33;;;5.40;98.20;;;;;;5040943;28;20083;-49
2022/03/13 03:37:00;;;;;;;25.80;19.48;;;5.30;98.20;;;;;;5030505;28;20037;-49
2022/03/13 03:39:27;;;;;;;25.75;19.63;;;5.30;98.20;;;;;;5037238;28;20052;-49
2022/03/13 03:41:53;;;;;;;27.25;18.45;;;5.20;98.30;;;;;;5042018;28;20076;-48
2022/03/13 03:44:20;;;;;;;22.50;17.30;;;5.20;98.30;;;;;;5043202;28;20438;-50
2022/03/13 03:46:47;;;;;;;27.02;18.92;;;5.10;98.40;;;;;;5031360;28;20041;-51
2022/03/13 03:49:13;;;;;;;27.42;19.90;;;5.10;98.40;;;;;;5035024;28;20106;-49
2022/03/13 03:51:39;;;;;;;26.92;18.58;;;5.00;98.30;;;;;;5040673;28;20037;-49
2022/03/13 03:54:06;;;;;;;25.60;19.33;;;5.00;98.40;;;;;;5033272;28;20059;-53
2022/03/13 03:56:32;;;;;;;27.05;18.42;;;5.00;98.40;;;;;;5049105;28;20053;-49
2022/03/13 03:58:57;;;;;;;26.52;18.92;;;5.00;98.40;;;;;;5045997;28;20048;-48
2022/03/13 04:01:23;;;;;;;25.37;19.00;;;4.90;98.30;;;;;;5030481;28;20037;-52
2022/03/13 04:03:49;;;;;;;26.42;18.48;;;4.90;98.30;;;;;;5030557;28;20625;-49
2022/03/13 04:06:16;;;;;;;25.55;18.60;;;4.90;98.30;;;;;;5048481;28;20041;-48
2022/03/13 04:08:41;;;;;;;;;;;4.80;98.40;;;;;;5048303;28;20029;-52
2022/03/13 04:11:08;;;;;;;24.83;18.70;;;4.80;98.70;;;;;;5031049;28;20279;-53
2022/03/13 04:13:38;;;;;;;26.42;18.15;;;4.80;98.40;;;;;;5029582;28;20048;-49
2022/03/13 04:16:08;;;;;;;28.13;17.85;;;4.80;98.40;;;;;;5045574;28;20048;-53
2022/03/13 04:18:35;;;;;;;27.10;19.70;;;4.70;98.40;;;;;;5037117;28;20034;-54
2022/03/13 04:21:04;;;;;;;24.48;18.02;;;4.70;98.50;;;;;;5044834;28;20498;-51
2022/03/13 04:23:31;;;;;;;29.52;19.27;;;4.70;98.50;;;;;;5030887;28;20042;-50
2022/03/13 04:25:56;;;;;;;46.33;17.80;;;4.70;98.50;;;;;;5037046;28;20052;-52
2022/03/13 04:28:22;;;;;;;22.67;18.30;;;4.70;98.40;;;;;;5031455;28;20037;-51
2022/03/13 04:30:52;;;;;;;27.58;18.33;;;4.60;98.30;;;;;;5033447;28;20068;-49
2022/03/13 04:33:18;;;;;;;23.10;17.40;;;4.60;98.30;;;;;;5042606;28;20040;-51
2022/03/13 04:35:43;;;;;;;25.25;18.88;;;4.60;98.30;;;;;;5033826;28;20077;-50
2022/03/13 04:38:09;;;;;;;23.23;16.80;;;4.60;98.30;;;;;;5030019;28;20072;-53
2022/03/13 04:40:35;;;;;;;23.70;17.47;;;4.50;98.30;;;;;;5036493;28;20033;-53
2022/03/13 04:43:01;;;;;;;24.83;17.07;;;4.50;98.20;;;;;;5046752;28;20048;-49
2022/03/13 04:45:27;;;;;;;23.02;17.38;;;4.50;98.20;;;;;;5030964;28;20107;-52
2022/03/13 04:47:53;;;;;;;22.67;17.90;;;4.50;98.10;;;;;;5029771;28;20046;-54
2022/03/13 04:50:19;;;;;;;24.33;17.63;;;4.50;98.00;;;;;;5030838;28;20048;-49
2022/03/13 04:52:45;;;;;;;21.55;16.48;;;4.50;98.00;;;;;;5038234;28;20041;-50
2022/03/13 04:55:10;;;;;;;22.20;16.10;;;4.50;97.90;;;;;;5043006;28;20475;-49
2022/03/13 04:57:36;;;;;;;23.70;16.67;;;4.50;98.00;;;;;;5051455;28;20113;-50
2022/03/13 05:00:02;;;;;;;22.73;17.17;;;4.50;98.10;;;;;;5046455;28;20190;-49
2022/03/13 05:02:28;;;;;;;;;;;4.50;97.90;;;;;;5053339;28;20082;-54
2022/03/13 05:04:54;;;;;;;24.27;15.73;;;4.50;97.90;;;;;;5041639;28;20012;-51
2022/03/13 05:07:20;;;;;;;24.93;16.33;;;4.40;97.70;;;;;;5034019;28;20044;-52
2022/03/13 05:09:46;;;;;;;;;;;4.40;97.60;;;;;;5037356;28;20032;-50
2022/03/13 05:12:12;;;;;;;24.23;16.30;;;4.40;97.70;;;;;;5052249;28;19923;-50
2022/03/13 05:14:37;;;;;;;23.83;15.50;;;4.30;97.50;;;;;;5046749;28;20123;-53
2022/03/13 05:17:03;;;;;;;22.10;16.40;;;4.30;97.40;;;;;;5034912;28;20076;-49
2022/03/13 05:19:29;;;;;;;23.90;17.33;;;4.20;97.40;;;;;;5050350;28;20071;-48
2022/03/13 05:21:55;;;;;;;20.60;15.10;;;4.20;97.40;;;;;;5032482;28;20449;-52
2022/03/13 05:24:20;;;;;;;21.77;17.08;;;4.10;97.40;;;;;;5051236;28;20047;-53
2022/03/13 05:26:46;;;;;;;26.37;16.70;;;4.10;97.50;;;;;;5033249;28;20107;-53
2022/03/13 05:29:12;;;;;;;25.17;15.57;;;4.00;97.60;;;;;;5033039;28;20091;-48
2022/03/13 05:31:39;;;;;;;25.37;16.17;;;4.00;97.60;;;;;;5049585;28;20040;-47
2022/03/13 05:34:04;;;;;;;21.33;15.63;;;4.00;97.70;;;;;;5048872;28;20482;-51
2022/03/13 05:36:30;;;;;;;23.67;17.27;;;4.00;97.70;;;;;;5040019;28;20059;-50
2022/03/13 05:38:56;;;;;;;22.77;16.80;;;4.00;97.80;;;;;;5046865;28;20036;-51
2022/03/13 05:41:22;;;;;;;27.90;16.33;;;4.00;97.80;;;;;;5034473;28;20132;-49
2022/03/13 05:43:49;;;;;;;25.13;17.40;;;4.00;98.00;;;;;;5036515;28;20113;-48
2022/03/13 05:46:15;;;;;;;22.75;17.00;;;4.00;98.20;;;;;;5038464;28;20067;-47
2022/03/13 05:48:41;;;;;;;21.45;15.52;;;4.00;98.40;;;;;;5032123;28;20037;-49
2022/03/13 05:51:07;;;;;;;22.08;17.05;;;4.00;98.60;;;;;;5037391;28;20119;-49
2022/03/13 05:53:33;;;;;;;25.17;16.10;;;4.10;98.60;;;;;;5042645;28;20045;-52
2022/03/13 05:55:58;;;;;;;19.48;16.58;;;4.10;98.40;;;;;;5045188;28;20079;-48
2022/03/13 05:58:24;;;;;;;19.90;15.93;;;4.20;98.30;;;;;;5051767;28;20044;-49
2022/03/13 06:01:05;;;;;;;22.20;16.13;;;4.20;98.20;;;;;;5049312;28;20068;-47
2022/03/13 06:03:32;;;;;;;20.25;15.57;;;4.20;98.20;;;;;;5050637;28;20108;-50
2022/03/13 06:06:00;;;;;;;27.92;15.88;;;4.20;98.10;;;;;;5048428;28;20036;-53
2022/03/13 06:08:25;;;;;;;21.13;15.57;;;4.30;98.00;;;;;;5042495;28;20037;-47
2022/03/13 06:10:51;;;;;;;24.93;15.97;;;4.30;98.00;;;;;;5032481;28;20033;-50
2022/03/13 06:13:18;;;;;;;20.88;14.57;;;4.40;97.90;;;;;;5031539;28;20033;-53
2022/03/13 06:15:43;;;;;;;;;;;4.50;97.80;;;;;;5033862;28;20422;-49
2022/03/13 06:18:10;;;;;;;21.08;15.07;;;4.60;97.60;;;;;;5047658;28;19923;-49
2022/03/13 06:20:36;;;;;;;19.77;15.05;;;4.80;97.30;;;;;;5047467;28;20421;-53
2022/03/13 06:23:03;;;;;;;25.33;16.47;;;4.90;97.00;;;;;;5034191;28;20045;-50
2022/03/13 06:25:29;;;;;;;18.38;14.23;;;5.10;96.70;;;;;;5039015;28;20578;-49
2022/03/13 06:27:56;;;;;;;21.63;15.55;;;5.30;96.40;;;;;;5051189;28;20108;-48
2022/03/13 06:30:21;;;;;;;;;;;5.50;96.00;;;;;;5050718;28;20120;-48
2022/03/13 06:32:50;;;;;;;20.23;15.98;;;5.70;95.80;;;;;;5032973;28;20091;-48
2022/03/13 06:35:18;;;;;;;19.88;17.30;;;5.90;95.40;;;;;;5039650;28;20044;-49
2022/03/13 06:37:44;;;;;;;19.05;16.95;;;6.20;95.30;;;;;;5040221;28;20041;-52
2022/03/13 06:40:11;;;;;;;21.70;16.55;;;6.50;95.00;;;;;;5030900;28;20037;-49
2022/03/13 06:42:38;;;;;;;18.05;14.43;;;6.70;94.50;;;;;;5042596;28;20045;-50
2022/03/13 06:45:05;;;;;;;22.77;15.77;;;7.00;94.10;;;;;;5035857;28;20037;-53
2022/03/13 06:47:30;;;;;;;;;;;7.10;93.60;;;;;;5039590;28;20542;-51
2022/03/13 06:49:56;;;;;;;21.00;15.23;;;7.30;93.10;;;;;;5043017;28;20004;-49
2022/03/13 06:52:22;;;;;;;19.70;14.67;;;7.40;93.00;;;;;;5037092;28;20036;-52
2022/03/13 06:54:47;;;;;;;21.95;14.23;;;7.60;92.50;;;;;;5031822;28;20044;-50
2022/03/13 06:57:15;;;;;;;20.73;13.77;;;7.80;92.10;;;;;;5041396;28;20086;-50
2022/03/13 06:59:42;;;;;;;22.35;14.57;;;8.00;91.50;;;;;;5049850;28;20113;-54
2022/03/13 07:02:09;;;;;;;16.27;13.32;;;8.20;91.20;;;;;;5038798;28;20040;-50
2022/03/13 07:04:35;;;;;;;20.52;13.88;;;8.20;90.50;;;;;;5043808;28;20041;-49
2022/03/13 07:07:00;;;;;;;17.57;14.23;;;8.10;90.10;;;;;;5050992;28;20098;-49
2022/03/13 07:09:26;;;;;;;19.53;14.73;;;7.80;89.30;;;;;;5051039;28;20550;-49
2022/03/13 07:11:52;;;;;;;22.47;14.70;;;7.50;89.20;;;;;;5031278;28;20037;-53
2022/03/13 07:14:19;;;;;;;19.92;14.13;;;7.30;90.00;;;;;;5036683;28;20043;-54
2022/03/13 07:16:45;;;;;;;21.65;14.88;;;7.10;89.70;;;;;;5033604;28;20041;-48
2022/03/13 07:19:10;;;;;;;18.23;13.53;;;6.90;90.20;;;;;;5060085;28;20048;-51
2022/03/13 07:21:38;;;;;;;20.83;13.73;;;6.80;90.60;;;;;;5044537;28;20057;-51
2022/03/13 07:24:04;;;;;;;22.33;14.38;;;6.80;90.50;;;;;;5049724;28;20044;-54
2022/03/13 07:26:30;;;;;;;17.27;13.55;;;6.90;90.80;;;;;;5038541;28;20075;-53
2022/03/13 07:28:55;;;;;;;22.13;14.00;;;6.90;90.70;;;;;;5031318;28;20068;-53
2022/03/13 07:31:21;;;;;;;23.50;14.90;;;6.90;90.60;;;;;;5030318;28;20041;-48
2022/03/13 07:33:46;;;;;;;16.63;13.73;;;6.90;90.80;;;;;;5038547;28;20107;-49
2022/03/13 07:36:12;;;;;;;20.97;14.87;;;6.90;91.10;;;;;;5048251;28;20279;-52
2022/03/13 07:38:37;;;;;;;20.47;13.87;;;6.90;91.00;;;;;;5050485;28;20060;-49
2022/03/13 07:41:03;;;;;;;18.80;13.40;;;7.00;91.20;;;;;;5048358;28;20051;-49
2022/03/13 07:43:29;;;;;;;18.00;13.70;;;7.10;90.90;;;;;;5050071;28;20048;-50
2022/03/13 07:45:55;;;;;;;17.67;14.35;;;7.10;88.00;;;;;;5047220;28;20053;-53
2022/03/13 07:48:20;;;;;;;16.83;12.93;;;7.30;88.10;;;;;;5029790;28;20068;-54
2022/03/13 07:50:46;;;;;;;16.40;12.77;;;7.40;88.90;;;;;;5030333;28;20268;-54
2022/03/13 07:53:12;;;;;;;18.67;13.57;;;7.50;85.60;;;;;;5050128;28;20037;-49
2022/03/13 07:55:37;;;;;;;18.00;13.70;;;7.60;84.70;;;;;;5044705;28;20033;-50
2022/03/13 07:58:03;;;;;;;17.63;13.10;;;7.70;87.20;;;;;;5043869;28;20040;-53
2022/03/13 08:00:28;;;;;;;20.47;13.47;;;7.70;85.70;;;;;;5048024;28;20551;-53
2022/03/13 08:02:54;;;;;;;17.67;12.67;;;7.90;85.20;;;;;;5039978;28;20653;-52
2022/03/13 08:05:23;;;;;;;17.23;12.13;;;7.90;85.40;;;;;;5029733;28;20300;-51
2022/03/13 08:07:49;;;;;;;21.92;13.75;;;8.10;84.30;;;;;;5043106;28;20039;-54
2022/03/13 08:10:21;;;;;;;27.10;12.02;;;8.10;85.50;;;;;;5048547;28;20040;-49
2022/03/13 08:12:50;;;;;;;18.55;11.73;;;8.10;83.00;;;;;;5038561;28;20070;-54
2022/03/13 08:15:17;;;;;;;42.67;13.68;;;8.10;80.60;;;;;;5047021;28;20498;-52
2022/03/13 08:17:42;;;;;;;;;;;8.10;83.20;;;;;;5048031;28;20033;-49
2022/03/13 08:20:09;;;;;;;17.75;12.68;;;8.10;81.90;;;;;;5032976;28;19979;-50
2022/03/13 08:22:34;;;;;;;17.77;12.23;;;8.00;80.10;;;;;;5031156;28;20041;-54
2022/03/13 08:25:00;;;;;;;20.40;13.20;;;8.00;82.00;;;;;;5029233;28;20125;-50
2022/03/13 08:27:25;;;;;;;19.20;12.97;;;7.90;82.10;;;;;;5038409;28;20116;-49
2022/03/13 08:29:51;;;;;;;18.63;12.70;;;8.00;82.40;;;;;;5032175;28;20565;-49
2022/03/13 08:32:18;;;;;;;15.18;12.13;;;8.00;83.10;;;;;;5035620;28;20044;-50
2022/03/13 08:34:45;;;;;;;21.85;13.02;;;8.20;84.90;;;;;;5048876;28;20048;-52
2022/03/13 08:37:11;;;;;;;18.25;12.88;;;8.30;82.90;;;;;;5037950;28;20125;-52
2022/03/13 08:39:37;;;;;;;18.98;12.27;;;8.40;83.50;;;;;;5037878;28;20041;-50
2022/03/13 08:42:06;;;;;;;19.58;12.23;;;8.50;83.00;;;;;;5048838;28;20037;-50
2022/03/13 08:44:32;;;;;;;19.45;12.93;;;8.70;82.50;;;;;;5047355;28;20037;-51
2022/03/13 08:46:58;;;;;;;19.17;11.68;;;8.80;82.50;;;;;;5038031;28;20037;-52
2022/03/13 08:49:24;;;;;;;21.92;11.27;;;9.00;81.70;;;;;;5046122;28;20068;-52
2022/03/13 08:51:50;;;;;;;18.08;11.63;;;9.10;80.50;;;;;;5049867;28;20033;-50
2022/03/13 08:54:16;;;;;;;15.10;12.00;;;9.30;79.50;;;;;;5036661;28;20040;-49
2022/03/13 08:56:46;;;;;;;19.83;11.48;;;9.40;78.20;;;;;;5051166;28;20051;-50
2022/03/13 08:59:12;;;;;;;22.05;11.98;;;9.60;78.10;;;;;;5034572;28;20036;-48
2022/03/13 09:01:37;;;;;;;14.67;11.43;;;9.70;77.20;;;;;;5046419;28;20115;-52
2022/03/13 09:04:03;;;;;;;16.70;11.30;;;9.90;75.30;;;;;;5043918;28;20306;-48
2022/03/13 09:06:29;;;;;;;15.55;11.52;;;10.00;75.80;;;;;;5032419;28;20503;-51
2022/03/13 09:08:54;;;;;;;15.33;11.27;;;10.10;74.80;;;;;;5042661;28;20509;-51
2022/03/13 09:11:20;;;;;;;16.13;10.97;;;10.10;74.10;;;;;;5052527;28;20045;-50
2022/03/13 09:13:46;;;;;;;36.80;12.93;;;10.20;73.40;;;;;;5040399;28;20275;-48
2022/03/13 09:16:12;;;;;;;14.50;10.48;;;10.40;73.90;;;;;;5032575;28;20552;-49
2022/03/13 09:18:37;;;;;;;14.70;11.80;;;10.50;72.80;;;;;;5033434;28;20460;-51
2022/03/13 09:21:03;;;;;;;14.38;10.38;;;10.50;71.00;;;;;;5032863;28;20128;-51
2022/03/13 09:23:29;;;;;;;15.70;10.98;;;10.60;68.50;;;;;;5030354;28;20034;-49
2022/03/13 09:25:55;;;;;;;13.77;10.93;;;10.60;69.00;;;;;;5029868;28;20498;-52
2022/03/13 09:28:21;;;;;;;14.98;11.95;;;10.60;68.00;;;;;;5029704;28;20033;-52
2022/03/13 09:30:47;;;;;;;14.38;10.52;;;10.60;69.80;;;;;;5031690;28;20095;-51
2022/03/13 09:33:13;;;;;;;13.52;10.80;;;10.70;69.50;;;;;;5030403;28;20537;-49
2022/03/13 09:35:39;;;;;;;14.25;10.43;;;10.80;71.20;;;;;;5029910;28;20120;-53
2022/03/13 09:38:05;;;;;;;15.32;11.15;;;10.90;69.30;;;;;;5029581;28;20056;-53
2022/03/13 09:40:33;;;;;;;16.70;11.37;;;11.00;69.60;;;;;;5030358;28;20045;-51
2022/03/13 09:43:00;;;;;;;15.57;12.30;;;11.00;67.20;;;;;;5029617;28;20665;-51
2022/03/13 09:45:26;;;;;;;17.52;11.50;;;11.20;69.60;;;;;;5028308;28;20527;-52
2022/03/13 09:47:53;;;;;;;16.65;13.40;;;11.20;68.20;;;;;;5029561;28;20076;-48
2022/03/13 09:50:20;;;;;;;12.73;10.70;;;11.30;67.40;;;;;;5031005;28;20037;-51
2022/03/13 09:52:46;;;;;;;15.93;11.75;;;11.40;66.80;;;;;;5043229;28;20041;-49
2022/03/13 09:55:13;;;;;;;16.00;11.80;;;11.40;67.30;;;;;;5039698;28;20180;-51
2022/03/13 09:57:41;;;;;;;13.18;10.68;;;11.40;66.90;;;;;;5029477;28;20033;-51
2022/03/13 10:00:18;;;;;;;14.93;11.35;;;11.50;67.80;;;;;;5030689;28;20114;-51
2022/03/13 10:02:44;;;;;;;16.20;11.25;;;11.60;65.60;;;;;;5030247;28;20143;-53
2022/03/13 10:05:14;;;;;;;15.80;11.95;;;11.70;67.10;;;;;;5034186;28;20482;-53
2022/03/13 10:07:59;;;;;;;12.15;10.48;;;11.80;65.90;;;;;;5032284;28;20041;-50
2022/03/13 10:10:32;;;;;;;13.95;10.98;;;11.80;64.50;;;;;;5043241;28;20055;-52
2022/03/13 10:13:00;;;;;;;15.35;11.13;;;11.80;66.50;;;;;;5041751;28;20033;-54
2022/03/13 10:15:26;;;;;;;15.02;10.38;;;11.70;64.70;;;;;;5031154;28;20507;-54
2022/03/13 10:17:51;;;;;;;13.98;10.73;;;11.80;68.00;;;;;;5031966;28;20042;-54
2022/03/13 10:20:23;;;;;;;13.18;10.32;;;11.90;66.10;;;;;;5043215;28;20398;-54
2022/03/13 10:22:59;;;;;;;15.13;11.15;;;12.00;65.20;;;;;;5049566;28;20052;-52
2022/03/13 10:25:32;;;;;;;14.70;10.75;;;12.00;64.40;;;;;;5045323;28;20036;-51
2022/03/13 10:28:20;;;;;;;16.95;11.63;;;12.10;64.70;;;;;;5046141;28;20065;-54
2022/03/13 10:31:00;;;;;;;14.02;11.30;;;12.10;63.80;;;;;;5041226;28;20406;-50
2022/03/13 10:33:27;;;;;;;16.02;12.52;;;12.20;63.40;;;;;;5060795;28;20069;-54
2022/03/13 10:36:08;;;;;;;21.05;12.25;;;12.20;63.70;;;;;;5045622;28;20053;-52
2022/03/13 10:38:34;;;;;;;15.75;10.77;;;12.20;64.80;;;;;;5045907;28;20533;-53
2022/03/13 10:41:01;;;;;;;15.57;10.52;;;12.30;63.40;;;;;;5047438;28;20106;-53
2022/03/13 10:43:29;;;;;;;15.43;10.82;;;12.30;62.60;;;;;;5050009;28;20037;-54
2022/03/13 10:45:56;;;;;;;14.40;9.70;;;12.40;62.70;;;;;;5046847;28;20056;-52
2022/03/13 10:48:36;;;;;;;14.65;11.20;;;12.40;63.20;;;;;;5043883;28;20045;-52
2022/03/13 10:51:12;;;;;;;16.73;11.80;;;12.40;59.20;;;;;;5046045;28;20076;-50
2022/03/13 10:53:42;;;;;;;16.40;11.75;;;12.40;60.70;;;;;;5037416;28;20044;-51
2022/03/13 10:56:14;;;;;;;16.58;10.35;;;12.30;60.40;;;;;;5040964;28;20103;-54
2022/03/13 10:58:44;;;;;;;16.52;11.63;;;12.30;60.40;;;;;;5037472;28;20123;-51
2022/03/13 11:01:12;;;;;;;12.75;9.80;;;12.30;61.70;;;;;;5050124;28;20098;-53
2022/03/13 11:03:51;;;;;;;16.73;12.43;;;12.40;62.40;;;;;;5048661;28;20041;-49
2022/03/13 11:06:17;;;;;;;16.42;12.13;;;12.50;62.50;;;;;;5049434;28;20037;-52
2022/03/13 11:08:43;;;;;;;14.73;10.80;;;12.60;62.20;;;;;;5050717;28;20083;-51
2022/03/13 11:11:09;;;;;;;16.50;11.45;;;12.80;60.90;;;;;;5040974;28;20037;-50
2022/03/13 11:13:39;;;;;;;12.82;10.63;;;13.00;62.30;;;;;;5041048;28;20091;-51
2022/03/13 11:16:09;;;;;;;13.65;11.25;;;13.00;59.60;;;;;;5047284;28;20469;-53
2022/03/13 11:18:37;;;;;;;18.60;12.10;;;13.10;60.30;;;;;;5034706;28;20052;-53
2022/03/13 11:21:08;;;;;;;16.27;11.68;;;13.20;60.10;;;;;;5036323;28;20533;-51
2022/03/13 11:23:34;;;;;;;14.55;11.07;;;13.20;59.20;;;;;;5042340;28;20056;-54
2022/03/13 11:26:01;;;;;;;16.58;11.40;;;13.20;58.70;;;;;;5033478;28;20515;-53
2022/03/13 11:28:28;;;;;;;14.70;10.35;;;13.30;58.60;;;;;;5042174;28;20032;-54
2022/03/13 11:30:54;;;;;;;16.23;11.82;;;13.40;57.60;;;;;;5049533;28;20080;-52
2022/03/13 11:33:30;;;;;;;16.33;10.73;;;13.50;57.20;;;;;;5033590;28;20044;-49
2022/03/13 11:36:45;;;;;;;16.75;12.18;;;13.60;59.00;;;;;;5036574;28;20049;-52
2022/03/13 11:39:13;;;;;;;14.70;11.07;;;13.80;56.90;;;;;;5027853;28;20045;-54
2022/03/13 11:41:44;;;;;;;13.38;10.65;;;14.00;58.30;;;;;;5037843;28;20095;-52
2022/03/13 11:44:22;;;;;;;16.40;11.55;;;14.10;56.70;;;;;;5041559;28;20382;-52
2022/03/13 11:46:53;;;;;;;16.92;12.18;;;14.30;57.70;;;;;;5037177;28;20060;-50
2022/03/13 11:49:39;;;;;;;15.65;11.38;;;14.40;55.20;;;;;;5038297;28;20033;-51
2022/03/13 11:52:11;;;;;;;16.08;11.10;;;14.50;54.50;;;;;;5037871;28;20041;-53
2022/03/13 11:54:48;;;;;;;14.13;11.48;;;14.60;56.20;;;;;;5042796;28;20044;-50
2022/03/13 11:57:15;;;;;;;15.40;11.45;;;14.70;55.80;;;;;;5034627;28;20041;-51
2022/03/13 11:59:42;;;;;;;15.40;11.07;;;14.70;54.60;;;;;;5040743;28;20045;-53
2022/03/13 12:02:11;;;;;;;12.48;10.60;;;14.80;53.10;;;;;;5033488;28;20056;-54
2022/03/13 12:04:37;;;;;;;14.63;10.57;;;14.90;54.80;;;;;;5052014;28;20560;-53
2022/03/13 12:07:06;;;;;;;15.55;10.80;;;15.00;55.90;;;;;;5047016;28;20088;-52
2022/03/13 12:09:42;;;;;;;13.68;10.93;;;15.00;55.10;;;;;;5041142;28;20060;-55
2022/03/13 12:12:12;;;;;;;16.98;11.57;;;15.10;54.40;;;;;;5043047;28;20033;-52
2022/03/13 12:14:57;;;;;;;15.10;11.68;;;15.10;54.60;;;;;;5038804;28;20044;-51
2022/03/13 12:17:46;;;;;;;16.02;10.90;;;15.20;53.20;;;;;;5034822;28;20392;-51
2022/03/13 12:20:24;;;;;;;14.93;11.23;;;15.10;53.80;;;;;;5043195;28;20410;-53
2022/03/13 12:22:53;;;;;;;27.48;10.95;;;15.20;55.20;;;;;;5041009;28;20055;-52
2022/03/13 12:25:30;;;;;;;61.58;14.95;;;15.30;53.00;;;;;;5047852;28;20409;-51
2022/03/13 12:27:57;;;;;;;18.30;11.88;;;15.30;54.00;;;;;;5035073;28;20029;-52
2022/03/13 12:30:29;;;;;;;13.13;10.45;;;15.40;54.20;;;;;;5037379;28;20506;-51
2022/03/13 12:33:05;;;;;;;16.13;11.02;;;15.40;55.40;;;;;;5043386;28;20056;-50
2022/03/13 12:35:31;;;;;;;15.35;11.25;;;15.50;54.70;;;;;;5038308;28;20040;-52
2022/03/13 12:38:01;;;;;;;15.68;10.90;;;15.60;54.30;;;;;;5051706;28;20131;-48
2022/03/13 12:40:30;;;;;;;14.45;10.75;;;15.60;54.60;;;;;;5048520;28;20123;-53